Grizzly Air Cargo 5366


PANC
Ted Stevens Anchorage International Airport
Anchorage, Alaska, US
PACD
Cold Bay Airport
Cold Bay, Alaska, US

Activity Log

Date Flight Route Aircraft Duration
No Flights Yet

Route Details

Aircraft Information
Primary: Boeing 727-200F
Backup: Boeing 737-800BCF
Route Data
Distance: 623nm
Sched. Duration: 2h 00m
Avg. Duration: 0h 00m (-200m)
Times Flown: 0
Recm'd Route: TED J115 CDB
Planned Altitude: 32,000ft
Origin Wx: PANC 130053Z 14016G24KT 10SM BKN050 BKN065 OVC120 17/08 A2985 RMK AO2 SLP109 T01720078 $
Dest. Wx: PACD 130053Z AUTO 01005KT 10SM OVC022 15/09 A2977 RMK AO2 SLP081 T01500094 TSNO $
Notes:

Financial History
Total Freight: 0lbs
Average Load: 0lbs/flt
Fuel Used: 0lbs
Avg. Fuel Used: 0lbs/flt
Fuel Expense: $0
Avg. Fuel Expense: $0
Avg. Fuel Cost: $0/lbs
Total Gross Income: $0
Pilot Pay: $0
Total Expenses: $0
Total Revenue: $0
Average Revenue: $0